Bellevue, Texas
Current Conditions -  °F | °C
As of 8:35 AM on Sunday 23 Nov 2014 (Local Time) from K0F2 Reporting Station
Broken Clouds Broken Clouds  
Wind Chill: 53°   Ceiling: 500
Heat Index: 53°   Visibility: 10mi
Dew Point: 53°   Wind: 8mph
Humidity: 98%   Direction: 160°SSE
Pressure: 29.5"   Gusts: NA
Location:  33.64°N, 98.01°W
Report Text: K0F2 231435Z AUTO 16007KT 10SM BKN005 12/12 A2950 RMK AO2 T01190116
Loading
Personal Weather Stations






























Interactive Weather Map New forecast layout! Learn more

10-Day Weather Forecast

Advertisements
Track Severe Weather on mobile